Bencomo Express — EAZD — position and weather

sailwx.info

Track history (hours):
 
Tides and Currents Weather Stations Pressure Air Temp Water Temp Dewpoint Dewpoint Depression Visibility Wind Speed Wind Dir Waves Ship Positions

Bencomo Express

Last reported at 2018-Jun-22 03:30 UTC. Time now 2018-Jun-22 03:39 UTC.
Position N 28°28' W 016°15'.

Length 95 m; draft 3.8 m.

MMSI: 224441000.

Date/timePositionNaut miles runAvg speedWind from/ knotsBaromVisibWave heightAir tempDewpointWater temp
2018-Jun-22 03:30N 28°28' W 016°15'0 0.0
2018-Jun-22 03:00N 28°28' W 016°15'0 0.0
2018-Jun-22 02:30N 28°28' W 016°15'0 0.0
2018-Jun-22 02:00N 28°28' W 016°15'0 0.0
2018-Jun-22 01:30N 28°28' W 016°15'0 0.0
2018-Jun-22 01:00N 28°28' W 016°15'0 0.0
2018-Jun-22 00:30N 28°28' W 016°15'0 0.0
2018-Jun-22 00:00N 28°28' W 016°15'0 0.0
2018-Jun-21 23:30N 28°28' W 016°15'0 0.0
2018-Jun-21 23:00N 28°28' W 016°15'0 0.0
2018-Jun-21 22:30N 28°28' W 016°15'0 0.0
2018-Jun-21 22:00N 28°28' W 016°15'0 0.0
2018-Jun-21 21:30N 28°28' W 016°15'0 0.0
2018-Jun-21 21:00N 28°28' W 016°15'0 0.0
2018-Jun-21 20:30N 28°28' W 016°15'714.5
2018-Jun-21 20:00N 28°24' W 016°08'5 1.8
2018-Jun-21 17:26N 28°20' W 016°05'1227.1
2018-Jun-21 17:00N 28°29' W 016°14'0 0.9
2018-Jun-21 16:30N 28°28' W 016°15'714.8
2018-Jun-21 16:01N 28°24' W 016°08'8 3.4
2018-Jun-21 13:35N 28°18' W 016°01'331.2
2018-Jun-21 13:30N 28°20' W 016°03'1326.5
2018-Jun-21 13:01N 28°29' W 016°14'0 0.9
2018-Jun-21 12:29N 28°28' W 016°15'2 3.7
2018-Jun-21 12:00N 28°28' W 016°13'14 5.9
2018-Jun-21 09:39N 28°19' W 016°01'532.2
2018-Jun-21 09:29N 28°22' W 016°05'1121.7
2018-Jun-21 09:00N 28°28' W 016°15'0 0.0
2018-Jun-21 08:30N 28°28' W 016°15'4 8.7
2018-Jun-21 08:01N 28°26' W 016°10'1631.5
2018-Jun-21 07:30N 28°16' W 015°56'1 0.4
2018-Jun-21 05:43N 28°15' W 015°56'732.0
2018-Jun-21 05:30N 28°20' W 016°02'1419.2
2018-Jun-21 04:46N 28°28' W 016°15'0 0.0
2018-Jun-21 04:21N 28°28' W 016°15'0 0.0
2018-Jun-21 02:46N 28°28' W 016°15'0 0.0
2018-Jun-21 02:29N 28°28' W 016°15'0 0.0
2018-Jun-21 00:56N 28°28' W 016°15'0 0.0
2018-Jun-21 00:20N 28°28' W 016°15'0 0.0
2018-Jun-21 00:00N 28°28' W 016°15'0 0.0
2018-Jun-20 22:59N 28°28' W 016°15'0 0.0
2018-Jun-20 22:30N 28°28' W 016°15'0 0.0
2018-Jun-20 21:51N 28°28' W 016°15'0 0.0
2018-Jun-20 20:52N 28°28' W 016°15'0 0.0
2018-Jun-20 20:29N 28°28' W 016°15'0 0.0
2018-Jun-20 16:54N 28°28' W 016°15'0 0.1
2018-Jun-20 16:21N 28°28' W 016°15'12 4.5
2018-Jun-20 13:37N 28°20' W 016°04'1212.7
2018-Jun-20 12:39N 28°28' W 016°15'0 0.0
2018-Jun-20 12:21N 28°28' W 016°15'2911.9
2018-Jun-20 09:56N 28°10' W 015°50'1734.8
2018-Jun-20 09:27N 28°21' W 016°03'1227.7
2018-Jun-20 09:01N 28°28' W 016°15'0 0.3
2018-Jun-20 08:31N 28°28' W 016°15'714.5
2018-Jun-20 08:00N 28°24' W 016°08'13 5.9
2018-Jun-20 05:43N 28°15' W 015°57'931.9
2018-Jun-20 05:27N 28°21' W 016°04'1227.9
2018-Jun-20 05:01N 28°29' W 016°14'0 0.9
2018-Jun-20 04:30N 28°28' W 016°15'0 0.0
2018-Jun-20 04:00N 28°28' W 016°15'0 0.0
2018-Jun-20 03:30N 28°28' W 016°15'0 0.0
2018-Jun-20 03:01N 28°28' W 016°15'0 0.0
2018-Jun-20 02:30N 28°28' W 016°15'0 0.0
2018-Jun-20 02:00N 28°28' W 016°15'0 0.0
2018-Jun-20 01:30N 28°28' W 016°15'0 0.0
2018-Jun-20 01:00N 28°28' W 016°15'0 0.0
2018-Jun-20 00:31N 28°28' W 016°15'0 0.0
2018-Jun-20 00:00N 28°28' W 016°15'0 0.0
2018-Jun-19 23:30N 28°28' W 016°15'0 0.0
2018-Jun-19 23:00N 28°28' W 016°15'0 0.0
2018-Jun-19 22:30N 28°28' W 016°15'0 0.0
2018-Jun-19 22:00N 28°28' W 016°15'0 0.0
2018-Jun-19 21:31N 28°28' W 016°15'0 0.0
2018-Jun-19 21:01N 28°28' W 016°15'0 0.0
2018-Jun-19 20:30N 28°28' W 016°15'510.3
2018-Jun-19 20:01N 28°26' W 016°10'11 4.4
2018-Jun-19 17:34N 28°18' W 016°01'233.0
2018-Jun-19 17:30N 28°20' W 016°03'1326.8
2018-Jun-19 17:00N 28°28' W 016°15'0 0.5
2018-Jun-19 16:30N 28°28' W 016°15'5 9.2
2018-Jun-19 16:00N 28°25' W 016°11'9 3.8
2018-Jun-19 13:34N 28°20' W 016°02'230.6
2018-Jun-19 13:31N 28°21' W 016°04'1223.6
2018-Jun-19 13:00N 28°28' W 016°15'0 0.3
2018-Jun-19 12:30N 28°28' W 016°15'3 5.7
2018-Jun-19 12:00N 28°27' W 016°12'15 6.6
2018-Jun-19 09:43N 28°18' W 015°58'832.8
2018-Jun-19 09:29N 28°22' W 016°05'1021.6
2018-Jun-19 09:00N 28°28' W 016°15'0 0.0
2018-Jun-19 08:30N 28°28' W 016°15'611.8
2018-Jun-19 08:00N 28°25' W 016°10'10 4.5
2018-Jun-19 05:39N 28°18' W 016°00'632.5
2018-Jun-19 05:28N 28°22' W 016°05'1021.9
2018-Jun-19 05:00N 28°28' W 016°15'0 0.0
2018-Jun-19 04:30N 28°28' W 016°15'0 0.0
2018-Jun-19 04:00N 28°28' W 016°15'0 0.0
2018-Jun-19 03:30N 28°28' W 016°15'0 0.0
2018-Jun-19 03:00N 28°28' W 016°15'0 0.0
2018-Jun-19 02:30N 28°28' W 016°15'0 0.0
2018-Jun-19 02:00N 28°28' W 016°15'0 0.0
2018-Jun-19 01:30N 28°28' W 016°15'0 0.0
2018-Jun-19 01:00N 28°28' W 016°15'0 0.0
2018-Jun-19 00:30N 28°28' W 016°15'0 0.0
2018-Jun-19 00:00N 28°28' W 016°15'0 0.0
2018-Jun-18 23:30N 28°28' W 016°15'0 0.0
2018-Jun-18 23:00N 28°28' W 016°15'0 0.0
2018-Jun-18 22:30N 28°28' W 016°15'0 0.0
2018-Jun-18 22:00N 28°28' W 016°15'0 0.0
2018-Jun-18 21:30N 28°28' W 016°15'0 0.0
2018-Jun-18 20:59N 28°28' W 016°15'0 0.0
2018-Jun-18 20:30N 28°28' W 016°15'611.7
2018-Jun-18 20:00N 28°25' W 016°09'10 4.1
2018-Jun-18 17:38N 28°18' W 016°01'432.4
2018-Jun-18 17:30N 28°21' W 016°05'1122.4
2018-Jun-18 17:00N 28°28' W 016°15'0 0.2
2018-Jun-18 16:30N 28°28' W 016°15'1121.1
2018-Jun-18 16:00N 28°21' W 016°06'3 1.2
2018-Jun-18 13:40N 28°20' W 016°03'531.3
2018-Jun-18 13:30N 28°23' W 016°07'917.3
2018-Jun-18 13:01N 28°28' W 016°15'0 0.0
2018-Jun-18 12:30N 28°28' W 016°15'611.1
2018-Jun-18 12:01N 28°25' W 016°10'3118.3
2018-Jun-18 10:21N 28°06' W 015°43'2029.2
2018-Jun-18 09:39N 28°19' W 016°01'531.8
2018-Jun-18 09:29N 28°22' W 016°05'1022.1
2018-Jun-18 09:00N 28°28' W 016°15'0 0.2
2018-Jun-18 08:30N 28°28' W 016°15'1121.9
2018-Jun-18 08:00N 28°21' W 016°06'5 2.0
2018-Jun-18 05:34N 28°18' W 016°01'232.5
2018-Jun-18 05:30N 28°20' W 016°02'1427.7
2018-Jun-18 05:00N 28°28' W 016°15'0 0.6
2018-Jun-18 04:30N 28°28' W 016°15'0 0.0
2018-Jun-18 04:00N 28°28' W 016°15'0 0.0
2018-Jun-18 03:30N 28°28' W 016°15'0 0.0
2018-Jun-18 03:00N 28°28' W 016°15'0 0.0
2018-Jun-18 02:30N 28°28' W 016°15'0 0.0
2018-Jun-18 02:00N 28°28' W 016°15'0 0.0
2018-Jun-18 01:30N 28°28' W 016°15'0 0.0
2018-Jun-18 01:00N 28°28' W 016°15'0 0.0
2018-Jun-18 00:30N 28°28' W 016°15'0 0.0
2018-Jun-18 00:00N 28°28' W 016°15'0 0.0
2018-Jun-17 23:30N 28°28' W 016°15'0 0.0
2018-Jun-17 23:00N 28°28' W 016°15'0 0.0
2018-Jun-17 22:29N 28°28' W 016°15'0 0.0
2018-Jun-17 22:00N 28°28' W 016°15'0 0.0
2018-Jun-17 21:30N 28°28' W 016°15'0 0.0
2018-Jun-17 21:00N 28°28' W 016°15'0 0.0
2018-Jun-17 20:30N 28°28' W 016°15'713.1
2018-Jun-17 20:01N 28°25' W 016°08'7 2.9
2018-Jun-17 17:34N 28°20' W 016°03'232.1
2018-Jun-17 17:29N 28°21' W 016°05'1123.2
2018-Jun-17 17:00N 28°28' W 016°15'0 0.0
2018-Jun-17 16:30N 28°28' W 016°15'816.3
2018-Jun-17 16:00N 28°24' W 016°07'6 2.4
2018-Jun-17 13:29N 28°19' W 016°02'1430.2
2018-Jun-17 13:00N 28°29' W 016°14'1 1.1
2018-Jun-17 12:30N 28°28' W 016°15'1 2.5
2018-Jun-17 12:00N 28°28' W 016°13'3518.7
2018-Jun-17 10:08N 28°06' W 015°43'1832.2
2018-Jun-17 09:35N 28°17' W 015°59'333.3
2018-Jun-17 09:30N 28°19' W 016°01'1631.2
2018-Jun-17 09:00N 28°29' W 016°14'1 1.1
2018-Jun-17 08:30N 28°28' W 016°15'2 4.9
2018-Jun-17 08:01N 28°27' W 016°12'14 1.1
2018-Jun-16 19:30N 28°18' W 015°60'1733.2
2018-Jun-16 19:00N 28°29' W 016°14'1 1.7
2018-Jun-16 18:30N 28°28' W 016°15'713.0
2018-Jun-16 18:00N 28°25' W 016°08'11 4.7
2018-Jun-16 15:46N 28°17' W 015°60'830.6
2018-Jun-16 15:30N 28°23' W 016°06'918.5
2018-Jun-16 15:00N 28°28' W 016°15'0 0.0
2018-Jun-16 14:30N 28°28' W 016°15'0 0.0
2018-Jun-16 14:00N 28°28' W 016°15'0 0.0
2018-Jun-16 13:30N 28°28' W 016°15'0 0.0
2018-Jun-16 13:00N 28°28' W 016°15'0 0.0
2018-Jun-16 12:30N 28°28' W 016°15'5 9.9
2018-Jun-16 12:00N 28°26' W 016°10'11 4.8
2018-Jun-16 09:40N 28°18' W 016°01'531.4
2018-Jun-16 09:30N 28°22' W 016°05'1121.6
2018-Jun-16 09:01N 28°28' W 016°15'0 0.0
2018-Jun-16 08:30N 28°28' W 016°15'5 9.4
2018-Jun-16 08:00N 28°25' W 016°11'18 2.1
2018-Jun-15 23:28N 28°14' W 015°55'1431.2
2018-Jun-15 23:00N 28°24' W 016°07'816.2
2018-Jun-15 22:30N 28°28' W 016°15'0 0.9
2018-Jun-15 22:00N 28°29' W 016°14'1020.0
2018-Jun-15 21:31N 28°22' W 016°06'6 2.7
2018-Jun-15 19:07N 28°18' W 016°00'328.5
2018-Jun-15 19:00N 28°20' W 016°03'1326.7
2018-Jun-15 18:30N 28°29' W 016°14'1 1.2
2018-Jun-15 18:00N 28°28' W 016°15'2 3.8
2018-Jun-15 17:30N 28°28' W 016°13'14 5.2
2018-Jun-15 14:52N 28°19' W 016°01'1027.4
2018-Jun-15 14:31N 28°25' W 016°09'611.3
2018-Jun-15 14:01N 28°28' W 016°15'1 1.1
2018-Jun-15 13:30N 28°29' W 016°14'1325.9
2018-Jun-15 13:00N 28°21' W 016°03'2 1.0
2018-Jun-15 10:38N 28°19' W 016°01'428.3
2018-Jun-15 10:31N 28°21' W 016°04'1223.1
2018-Jun-15 10:00N 28°28' W 016°15'0 0.2
2018-Jun-15 09:30N 28°28' W 016°15'1 2.6
2018-Jun-15 09:00N 28°29' W 016°13'15 6.0
2018-Jun-15 06:30N 28°18' W 016°01'1530.7
2018-Jun-15 06:00N 28°29' W 016°14'1 2.3
2018-Jun-15 05:30N 28°28' W 016°15'713.6
2018-Jun-15 05:00N 28°24' W 016°09'12 2.0
2018-Jun-14 22:59N 28°17' W 015°57'1531.7
2018-Jun-14 22:31N 28°27' W 016°11'4 7.2
2018-Jun-14 22:00N 28°28' W 016°15'611.2
2018-Jun-14 21:31N 28°25' W 016°10'10 4.2
2018-Jun-14 19:02N 28°18' W 016°01'228.4
2018-Jun-14 18:58N 28°20' W 016°02'1328.6
2018-Jun-14 18:30N 28°28' W 016°14'1 2.2
2018-Jun-14 17:59N 28°28' W 016°15'1 2.0
2018-Jun-14 17:31N 28°29' W 016°14'1122.3
2018-Jun-14 17:00N 28°21' W 016°05'3 1.4
2018-Jun-14 14:37N 28°18' W 016°02'426.9
2018-Jun-14 14:29N 28°21' W 016°06'1122.7
2018-Jun-14 14:00N 28°28' W 016°15'0 0.7
2018-Jun-14 13:30N 28°28' W 016°15'611.3
2018-Jun-14 13:00N 28°25' W 016°10'10 4.3
2018-Jun-14 10:42N 28°18' W 016°01'629.1
2018-Jun-14 10:30N 28°22' W 016°06'1019.7
2018-Jun-14 10:00N 28°28' W 016°15'0 0.0
2018-Jun-14 09:30N 28°28' W 016°15'917.3
2018-Jun-14 09:00N 28°23' W 016°07'6 2.4
2018-Jun-14 06:42N 28°19' W 016°02'629.2
2018-Jun-14 06:30N 28°23' W 016°07'916.8
2018-Jun-14 06:00N 28°28' W 016°15'0 0.0
2018-Jun-14 05:30N 28°28' W 016°15'713.3
2018-Jun-14 05:00N 28°24' W 016°08'13 2.0
2018-Jun-13 22:25N 28°16' W 015°57'1433.1
2018-Jun-13 22:00N 28°25' W 016°09'612.8
2018-Jun-13 21:31N 28°28' W 016°15'3 6.9
2018-Jun-13 21:00N 28°27' W 016°11'11 4.3
2018-Jun-13 18:24N 28°19' W 016°02'1129.0
2018-Jun-13 18:01N 28°27' W 016°11'3 6.6
2018-Jun-13 17:30N 28°28' W 016°15'1 1.2
2018-Jun-13 17:00N 28°29' W 016°14'1326.6
2018-Jun-13 16:30N 28°20' W 016°03'2 0.9
2018-Jun-13 14:22N 28°18' W 016°01'1028.2
2018-Jun-13 14:00N 28°25' W 016°10'510.2
2018-Jun-13 13:30N 28°28' W 016°15'1 1.8
2018-Jun-13 13:00N 28°29' W 016°14'14 5.9
2018-Jun-13 10:36N 28°19' W 016°02'331.2
2018-Jun-13 10:30N 28°21' W 016°05'1122.7
2018-Jun-13 10:00N 28°28' W 016°15'0 0.0
2018-Jun-13 09:30N 28°28' W 016°15'511.1
2018-Jun-13 09:00N 28°25' W 016°09'12 5.1
2018-Jun-13 06:43N 28°17' W 015°60'628.6
2018-Jun-13 06:31N 28°21' W 016°05'1121.4
2018-Jun-13 06:00N 28°28' W 016°15'0 0.0
2018-Jun-13 05:31N 28°28' W 016°15'612.1
2018-Jun-13 05:00N 28°25' W 016°09'5 0.7
2018-Jun-12 21:59N 28°22' W 016°04'1123.5
2018-Jun-12 21:30N 28°28' W 016°15'1 1.6
2018-Jun-12 21:01N 28°29' W 016°14'14 5.2
2018-Jun-12 18:23N 28°20' W 016°03'1129.2
2018-Jun-12 18:00N 28°27' W 016°12'3 4.8
2018-Jun-12 17:28N 28°28' W 016°15'1 1.3
2018-Jun-12 17:01N 28°29' W 016°14'15 5.1
2018-Jun-12 14:08N 28°19' W 016°02'427.8
2018-Jun-12 13:59N 28°22' W 016°05'1122.1
2018-Jun-12 13:30N 28°28' W 016°15'0 0.0
2018-Jun-12 13:00N 28°28' W 016°15'1222.2
2018-Jun-12 12:28N 28°21' W 016°04'3 1.4
2018-Jun-12 10:22N 28°19' W 016°02'1029.5
2018-Jun-12 10:00N 28°26' W 016°10'5 9.0
2018-Jun-12 09:30N 28°28' W 016°15'0 0.8
2018-Jun-12 09:00N 28°29' W 016°15'17 6.8
2018-Jun-12 06:33N 28°18' W 015°60'431.3
2018-Jun-12 06:25N 28°21' W 016°03'1330.9
2018-Jun-12 06:00N 28°29' W 016°14'1 1.5
2018-Jun-12 05:30N 28°28' W 016°15'815.3
2018-Jun-12 05:01N 28°24' W 016°08'  
Track history (hours):
 
Tides and Currents Weather Stations Pressure Air Temp Water Temp Dewpoint Dewpoint Depression Visibility Wind Speed Wind Dir Waves Ship Positions

Bencomo Express

Last reported at 2018-Jun-22 03:30 UTC. Time now 2018-Jun-22 03:39 UTC.
Position N 28°28' W 016°15'.

Length 95 m; draft 3.8 m.

MMSI: 224441000.

Date/timePositionNaut miles runAvg speedWind from/ knotsBaromVisibWave heightAir tempDewpointWater temp
2018-Jun-22 03:30N 28°28' W 016°15'0 0.0
2018-Jun-22 03:00N 28°28' W 016°15'0 0.0
2018-Jun-22 02:30N 28°28' W 016°15'0 0.0
2018-Jun-22 02:00N 28°28' W 016°15'0 0.0
2018-Jun-22 01:30N 28°28' W 016°15'0 0.0
2018-Jun-22 01:00N 28°28' W 016°15'0 0.0
2018-Jun-22 00:30N 28°28' W 016°15'0 0.0
2018-Jun-22 00:00N 28°28' W 016°15'0 0.0
2018-Jun-21 23:30N 28°28' W 016°15'0 0.0
2018-Jun-21 23:00N 28°28' W 016°15'0 0.0
2018-Jun-21 22:30N 28°28' W 016°15'0 0.0
2018-Jun-21 22:00N 28°28' W 016°15'0 0.0
2018-Jun-21 21:30N 28°28' W 016°15'0 0.0
2018-Jun-21 21:00N 28°28' W 016°15'0 0.0
2018-Jun-21 20:30N 28°28' W 016°15'714.5
2018-Jun-21 20:00N 28°24' W 016°08'5 1.8
2018-Jun-21 17:26N 28°20' W 016°05'1227.1
2018-Jun-21 17:00N 28°29' W 016°14'0 0.9
2018-Jun-21 16:30N 28°28' W 016°15'714.8
2018-Jun-21 16:01N 28°24' W 016°08'8 3.4
2018-Jun-21 13:35N 28°18' W 016°01'331.2
2018-Jun-21 13:30N 28°20' W 016°03'1326.5
2018-Jun-21 13:01N 28°29' W 016°14'0 0.9
2018-Jun-21 12:29N 28°28' W 016°15'2 3.7
2018-Jun-21 12:00N 28°28' W 016°13'14 5.9
2018-Jun-21 09:39N 28°19' W 016°01'532.2
2018-Jun-21 09:29N 28°22' W 016°05'1121.7
2018-Jun-21 09:00N 28°28' W 016°15'0 0.0
2018-Jun-21 08:30N 28°28' W 016°15'4 8.7
2018-Jun-21 08:01N 28°26' W 016°10'1631.5
2018-Jun-21 07:30N 28°16' W 015°56'1 0.4
2018-Jun-21 05:43N 28°15' W 015°56'732.0
2018-Jun-21 05:30N 28°20' W 016°02'1419.2
2018-Jun-21 04:46N 28°28' W 016°15'0 0.0
2018-Jun-21 04:21N 28°28' W 016°15'0 0.0
2018-Jun-21 02:46N 28°28' W 016°15'0 0.0
2018-Jun-21 02:29N 28°28' W 016°15'0 0.0
2018-Jun-21 00:56N 28°28' W 016°15'0 0.0
2018-Jun-21 00:20N 28°28' W 016°15'0 0.0
2018-Jun-21 00:00N 28°28' W 016°15'0 0.0
2018-Jun-20 22:59N 28°28' W 016°15'0 0.0
2018-Jun-20 22:30N 28°28' W 016°15'0 0.0
2018-Jun-20 21:51N 28°28' W 016°15'0 0.0
2018-Jun-20 20:52N 28°28' W 016°15'0 0.0
2018-Jun-20 20:29N 28°28' W 016°15'0 0.0
2018-Jun-20 16:54N 28°28' W 016°15'0 0.1
2018-Jun-20 16:21N 28°28' W 016°15'12 4.5
2018-Jun-20 13:37N 28°20' W 016°04'1212.7
2018-Jun-20 12:39N 28°28' W 016°15'0 0.0
2018-Jun-20 12:21N 28°28' W 016°15'2911.9
2018-Jun-20 09:56N 28°10' W 015°50'1734.8
2018-Jun-20 09:27N 28°21' W 016°03'1227.7
2018-Jun-20 09:01N 28°28' W 016°15'0 0.3
2018-Jun-20 08:31N 28°28' W 016°15'714.5
2018-Jun-20 08:00N 28°24' W 016°08'13 5.9
2018-Jun-20 05:43N 28°15' W 015°57'931.9
2018-Jun-20 05:27N 28°21' W 016°04'1227.9
2018-Jun-20 05:01N 28°29' W 016°14'0 0.9
2018-Jun-20 04:30N 28°28' W 016°15'0 0.0
2018-Jun-20 04:00N 28°28' W 016°15'0 0.0
2018-Jun-20 03:30N 28°28' W 016°15'0 0.0
2018-Jun-20 03:01N 28°28' W 016°15'0 0.0
2018-Jun-20 02:30N 28°28' W 016°15'0 0.0
2018-Jun-20 02:00N 28°28' W 016°15'0 0.0
2018-Jun-20 01:30N 28°28' W 016°15'0 0.0
2018-Jun-20 01:00N 28°28' W 016°15'0 0.0
2018-Jun-20 00:31N 28°28' W 016°15'0 0.0
2018-Jun-20 00:00N 28°28' W 016°15'0 0.0
2018-Jun-19 23:30N 28°28' W 016°15'0 0.0
2018-Jun-19 23:00N 28°28' W 016°15'0 0.0
2018-Jun-19 22:30N 28°28' W 016°15'0 0.0
2018-Jun-19 22:00N 28°28' W 016°15'0 0.0
2018-Jun-19 21:31N 28°28' W 016°15'0 0.0
2018-Jun-19 21:01N 28°28' W 016°15'0 0.0
2018-Jun-19 20:30N 28°28' W 016°15'510.3
2018-Jun-19 20:01N 28°26' W 016°10'11 4.4
2018-Jun-19 17:34N 28°18' W 016°01'233.0
2018-Jun-19 17:30N 28°20' W 016°03'1326.8
2018-Jun-19 17:00N 28°28' W 016°15'0 0.5
2018-Jun-19 16:30N 28°28' W 016°15'5 9.2
2018-Jun-19 16:00N 28°25' W 016°11'9 3.8
2018-Jun-19 13:34N 28°20' W 016°02'230.6
2018-Jun-19 13:31N 28°21' W 016°04'1223.6
2018-Jun-19 13:00N 28°28' W 016°15'0 0.3
2018-Jun-19 12:30N 28°28' W 016°15'3 5.7
2018-Jun-19 12:00N 28°27' W 016°12'15 6.6
2018-Jun-19 09:43N 28°18' W 015°58'832.8
2018-Jun-19 09:29N 28°22' W 016°05'1021.6
2018-Jun-19 09:00N 28°28' W 016°15'0 0.0
2018-Jun-19 08:30N 28°28' W 016°15'611.8
2018-Jun-19 08:00N 28°25' W 016°10'10 4.5
2018-Jun-19 05:39N 28°18' W 016°00'632.5
2018-Jun-19 05:28N 28°22' W 016°05'1021.9
2018-Jun-19 05:00N 28°28' W 016°15'0 0.0
2018-Jun-19 04:30N 28°28' W 016°15'0 0.0
2018-Jun-19 04:00N 28°28' W 016°15'0 0.0
2018-Jun-19 03:30N 28°28' W 016°15'0 0.0
2018-Jun-19 03:00N 28°28' W 016°15'0 0.0
2018-Jun-19 02:30N 28°28' W 016°15'0 0.0
2018-Jun-19 02:00N 28°28' W 016°15'0 0.0
2018-Jun-19 01:30N 28°28' W 016°15'0 0.0
2018-Jun-19 01:00N 28°28' W 016°15'0 0.0
2018-Jun-19 00:30N 28°28' W 016°15'0 0.0
2018-Jun-19 00:00N 28°28' W 016°15'0 0.0
2018-Jun-18 23:30N 28°28' W 016°15'0 0.0
2018-Jun-18 23:00N 28°28' W 016°15'0 0.0
2018-Jun-18 22:30N 28°28' W 016°15'0 0.0
2018-Jun-18 22:00N 28°28' W 016°15'0 0.0
2018-Jun-18 21:30N 28°28' W 016°15'0 0.0
2018-Jun-18 20:59N 28°28' W 016°15'0 0.0
2018-Jun-18 20:30N 28°28' W 016°15'611.7
2018-Jun-18 20:00N 28°25' W 016°09'10 4.1
2018-Jun-18 17:38N 28°18' W 016°01'432.4
2018-Jun-18 17:30N 28°21' W 016°05'1122.4
2018-Jun-18 17:00N 28°28' W 016°15'0 0.2
2018-Jun-18 16:30N 28°28' W 016°15'1121.1
2018-Jun-18 16:00N 28°21' W 016°06'3 1.2
2018-Jun-18 13:40N 28°20' W 016°03'531.3
2018-Jun-18 13:30N 28°23' W 016°07'917.3
2018-Jun-18 13:01N 28°28' W 016°15'0 0.0
2018-Jun-18 12:30N 28°28' W 016°15'611.1
2018-Jun-18 12:01N 28°25' W 016°10'3118.3
2018-Jun-18 10:21N 28°06' W 015°43'2029.2
2018-Jun-18 09:39N 28°19' W 016°01'531.8
2018-Jun-18 09:29N 28°22' W 016°05'1022.1
2018-Jun-18 09:00N 28°28' W 016°15'0 0.2
2018-Jun-18 08:30N 28°28' W 016°15'1121.9
2018-Jun-18 08:00N 28°21' W 016°06'5 2.0
2018-Jun-18 05:34N 28°18' W 016°01'232.5
2018-Jun-18 05:30N 28°20' W 016°02'1427.7
2018-Jun-18 05:00N 28°28' W 016°15'0 0.6
2018-Jun-18 04:30N 28°28' W 016°15'0 0.0
2018-Jun-18 04:00N 28°28' W 016°15'0 0.0
2018-Jun-18 03:30N 28°28' W 016°15'0 0.0
2018-Jun-18 03:00N 28°28' W 016°15'0 0.0
2018-Jun-18 02:30N 28°28' W 016°15'0 0.0
2018-Jun-18 02:00N 28°28' W 016°15'0 0.0
2018-Jun-18 01:30N 28°28' W 016°15'0 0.0
2018-Jun-18 01:00N 28°28' W 016°15'0 0.0
2018-Jun-18 00:30N 28°28' W 016°15'0 0.0
2018-Jun-18 00:00N 28°28' W 016°15'0 0.0
2018-Jun-17 23:30N 28°28' W 016°15'0 0.0
2018-Jun-17 23:00N 28°28' W 016°15'0 0.0
2018-Jun-17 22:29N 28°28' W 016°15'0 0.0
2018-Jun-17 22:00N 28°28' W 016°15'0 0.0
2018-Jun-17 21:30N 28°28' W 016°15'0 0.0
2018-Jun-17 21:00N 28°28' W 016°15'0 0.0
2018-Jun-17 20:30N 28°28' W 016°15'713.1
2018-Jun-17 20:01N 28°25' W 016°08'7 2.9
2018-Jun-17 17:34N 28°20' W 016°03'232.1
2018-Jun-17 17:29N 28°21' W 016°05'1123.2
2018-Jun-17 17:00N 28°28' W 016°15'0 0.0
2018-Jun-17 16:30N 28°28' W 016°15'816.3
2018-Jun-17 16:00N 28°24' W 016°07'6 2.4
2018-Jun-17 13:29N 28°19' W 016°02'1430.2
2018-Jun-17 13:00N 28°29' W 016°14'1 1.1
2018-Jun-17 12:30N 28°28' W 016°15'1 2.5
2018-Jun-17 12:00N 28°28' W 016°13'3518.7
2018-Jun-17 10:08N 28°06' W 015°43'1832.2
2018-Jun-17 09:35N 28°17' W 015°59'333.3
2018-Jun-17 09:30N 28°19' W 016°01'1631.2
2018-Jun-17 09:00N 28°29' W 016°14'1 1.1
2018-Jun-17 08:30N 28°28' W 016°15'2 4.9
2018-Jun-17 08:01N 28°27' W 016°12'14 1.1
2018-Jun-16 19:30N 28°18' W 015°60'1733.2
2018-Jun-16 19:00N 28°29' W 016°14'1 1.7
2018-Jun-16 18:30N 28°28' W 016°15'713.0
2018-Jun-16 18:00N 28°25' W 016°08'11 4.7
2018-Jun-16 15:46N 28°17' W 015°60'830.6
2018-Jun-16 15:30N 28°23' W 016°06'918.5
2018-Jun-16 15:00N 28°28' W 016°15'0 0.0
2018-Jun-16 14:30N 28°28' W 016°15'0 0.0
2018-Jun-16 14:00N 28°28' W 016°15'0 0.0
2018-Jun-16 13:30N 28°28' W 016°15'0 0.0
2018-Jun-16 13:00N 28°28' W 016°15'0 0.0
2018-Jun-16 12:30N 28°28' W 016°15'5 9.9
2018-Jun-16 12:00N 28°26' W 016°10'11 4.8
2018-Jun-16 09:40N 28°18' W 016°01'531.4
2018-Jun-16 09:30N 28°22' W 016°05'1121.6
2018-Jun-16 09:01N 28°28' W 016°15'0 0.0
2018-Jun-16 08:30N 28°28' W 016°15'5 9.4
2018-Jun-16 08:00N 28°25' W 016°11'18 2.1
2018-Jun-15 23:28N 28°14' W 015°55'1431.2
2018-Jun-15 23:00N 28°24' W 016°07'816.2
2018-Jun-15 22:30N 28°28' W 016°15'0 0.9
2018-Jun-15 22:00N 28°29' W 016°14'1020.0
2018-Jun-15 21:31N 28°22' W 016°06'6 2.7
2018-Jun-15 19:07N 28°18' W 016°00'328.5
2018-Jun-15 19:00N 28°20' W 016°03'1326.7
2018-Jun-15 18:30N 28°29' W 016°14'1 1.2
2018-Jun-15 18:00N 28°28' W 016°15'2 3.8
2018-Jun-15 17:30N 28°28' W 016°13'14 5.2
2018-Jun-15 14:52N 28°19' W 016°01'1027.4
2018-Jun-15 14:31N 28°25' W 016°09'611.3
2018-Jun-15 14:01N 28°28' W 016°15'1 1.1
2018-Jun-15 13:30N 28°29' W 016°14'1325.9
2018-Jun-15 13:00N 28°21' W 016°03'2 1.0
2018-Jun-15 10:38N 28°19' W 016°01'428.3
2018-Jun-15 10:31N 28°21' W 016°04'1223.1
2018-Jun-15 10:00N 28°28' W 016°15'0 0.2
2018-Jun-15 09:30N 28°28' W 016°15'1 2.6
2018-Jun-15 09:00N 28°29' W 016°13'15 6.0
2018-Jun-15 06:30N 28°18' W 016°01'1530.7
2018-Jun-15 06:00N 28°29' W 016°14'1 2.3
2018-Jun-15 05:30N 28°28' W 016°15'713.6
2018-Jun-15 05:00N 28°24' W 016°09'12 2.0
2018-Jun-14 22:59N 28°17' W 015°57'1531.7
2018-Jun-14 22:31N 28°27' W 016°11'4 7.2
2018-Jun-14 22:00N 28°28' W 016°15'611.2
2018-Jun-14 21:31N 28°25' W 016°10'10 4.2
2018-Jun-14 19:02N 28°18' W 016°01'228.4
2018-Jun-14 18:58N 28°20' W 016°02'1328.6
2018-Jun-14 18:30N 28°28' W 016°14'1 2.2
2018-Jun-14 17:59N 28°28' W 016°15'1 2.0
2018-Jun-14 17:31N 28°29' W 016°14'1122.3
2018-Jun-14 17:00N 28°21' W 016°05'3 1.4
2018-Jun-14 14:37N 28°18' W 016°02'426.9
2018-Jun-14 14:29N 28°21' W 016°06'1122.7
2018-Jun-14 14:00N 28°28' W 016°15'0 0.7
2018-Jun-14 13:30N 28°28' W 016°15'611.3
2018-Jun-14 13:00N 28°25' W 016°10'10 4.3
2018-Jun-14 10:42N 28°18' W 016°01'629.1
2018-Jun-14 10:30N 28°22' W 016°06'1019.7
2018-Jun-14 10:00N 28°28' W 016°15'0 0.0
2018-Jun-14 09:30N 28°28' W 016°15'917.3
2018-Jun-14 09:00N 28°23' W 016°07'6 2.4
2018-Jun-14 06:42N 28°19' W 016°02'629.2
2018-Jun-14 06:30N 28°23' W 016°07'916.8
2018-Jun-14 06:00N 28°28' W 016°15'0 0.0
2018-Jun-14 05:30N 28°28' W 016°15'713.3
2018-Jun-14 05:00N 28°24' W 016°08'13 2.0
2018-Jun-13 22:25N 28°16' W 015°57'1433.1
2018-Jun-13 22:00N 28°25' W 016°09'612.8
2018-Jun-13 21:31N 28°28' W 016°15'3 6.9
2018-Jun-13 21:00N 28°27' W 016°11'11 4.3
2018-Jun-13 18:24N 28°19' W 016°02'1129.0
2018-Jun-13 18:01N 28°27' W 016°11'3 6.6
2018-Jun-13 17:30N 28°28' W 016°15'1 1.2
2018-Jun-13 17:00N 28°29' W 016°14'1326.6
2018-Jun-13 16:30N 28°20' W 016°03'2 0.9
2018-Jun-13 14:22N 28°18' W 016°01'1028.2
2018-Jun-13 14:00N 28°25' W 016°10'510.2
2018-Jun-13 13:30N 28°28' W 016°15'1 1.8
2018-Jun-13 13:00N 28°29' W 016°14'14 5.9
2018-Jun-13 10:36N 28°19' W 016°02'331.2
2018-Jun-13 10:30N 28°21' W 016°05'1122.7
2018-Jun-13 10:00N 28°28' W 016°15'0 0.0
2018-Jun-13 09:30N 28°28' W 016°15'511.1
2018-Jun-13 09:00N 28°25' W 016°09'12 5.1
2018-Jun-13 06:43N 28°17' W 015°60'628.6
2018-Jun-13 06:31N 28°21' W 016°05'1121.4
2018-Jun-13 06:00N 28°28' W 016°15'0 0.0
2018-Jun-13 05:31N 28°28' W 016°15'612.1
2018-Jun-13 05:00N 28°25' W 016°09'5 0.7
2018-Jun-12 21:59N 28°22' W 016°04'1123.5
2018-Jun-12 21:30N 28°28' W 016°15'1 1.6
2018-Jun-12 21:01N 28°29' W 016°14'14 5.2
2018-Jun-12 18:23N 28°20' W 016°03'1129.2
2018-Jun-12 18:00N 28°27' W 016°12'3 4.8
2018-Jun-12 17:28N 28°28' W 016°15'1 1.3
2018-Jun-12 17:01N 28°29' W 016°14'15 5.1
2018-Jun-12 14:08N 28°19' W 016°02'427.8
2018-Jun-12 13:59N 28°22' W 016°05'1122.1
2018-Jun-12 13:30N 28°28' W 016°15'0 0.0
2018-Jun-12 13:00N 28°28' W 016°15'1222.2
2018-Jun-12 12:28N 28°21' W 016°04'3 1.4
2018-Jun-12 10:22N 28°19' W 016°02'1029.5
2018-Jun-12 10:00N 28°26' W 016°10'5 9.0
2018-Jun-12 09:30N 28°28' W 016°15'0 0.8
2018-Jun-12 09:00N 28°29' W 016°15'17 6.8
2018-Jun-12 06:33N 28°18' W 015°60'431.3
2018-Jun-12 06:25N 28°21' W 016°03'1330.9
2018-Jun-12 06:00N 28°29' W 016°14'1 1.5
2018-Jun-12 05:30N 28°28' W 016°15'815.3
2018-Jun-12 05:01N 28°24' W 016°08'  

Dump ship's entire track history